Time;durP1;ratioP1;P1;durP2;ratioP2;P2;SDS_P1;SDS_P2;PMS_P1;PMS_P2;Temp;Humidity;BMP_temperature;BMP_pressure;BME280_temperature;BME280_humidity;BME280_pressure;Samples;Min_cycle;Max_cycle;Signal;HPM_P1;HPM_P2
2022/07/26 00:02:25;;;;;;;2.13;1.30;;;28.30;80.10;;;;;;5034733;28;20026;-24
2022/07/26 00:04:50;;;;;;;4.20;1.42;;;28.30;80.20;;;;;;5035727;28;20036;-24
2022/07/26 00:07:16;;;;;;;2.17;1.45;;;28.30;80.20;;;;;;5035001;28;20022;-24
2022/07/26 00:09:42;;;;;;;2.83;1.35;;;28.30;80.20;;;;;;5034846;28;20021;-24
2022/07/26 00:12:09;;;;;;;2.75;1.50;;;28.30;80.20;;;;;;5034912;28;20020;-25
2022/07/26 00:14:34;;;;;;;1.95;1.30;;;28.30;80.30;;;;;;5034709;28;20108;-24
2022/07/26 00:17:00;;;;;;;4.18;1.40;;;28.30;80.30;;;;;;5034362;28;20096;-24
2022/07/26 00:19:26;;;;;;;2.53;1.60;;;28.30;80.30;;;;;;5034220;28;20026;-24
2022/07/26 00:22:32;;;;;;;4.15;1.20;;;28.30;80.40;;;;;;5034620;28;20021;-24
2022/07/26 00:24:38;;;;;;;2.38;1.20;;;28.30;80.40;;;;;;5034274;28;20022;-24
2022/07/26 00:27:04;;;;;;;2.83;1.50;;;28.30;80.40;;;;;;5034208;28;20475;-24
2022/07/26 00:29:30;;;;;;;2.63;1.30;;;28.30;80.50;;;;;;5034462;28;20490;-24
2022/07/26 00:31:56;;;;;;;5.03;1.30;;;28.30;80.50;;;;;;5017037;28;20025;-24
2022/07/26 00:34:22;;;;;;;3.17;1.10;;;28.30;80.60;;;;;;5034318;28;20036;-24
2022/07/26 00:36:47;;;;;;;3.47;1.17;;;28.20;80.50;;;;;;5034458;28;20028;-24
2022/07/26 00:39:13;;;;;;;1.33;1.17;;;28.20;80.60;;;;;;5033880;28;20029;-24
2022/07/26 00:41:39;;;;;;;2.17;1.10;;;28.20;80.60;;;;;;5034348;28;20034;-25
2022/07/26 00:44:05;;;;;;;2.22;1.30;;;28.20;80.70;;;;;;5034017;28;20037;-25
2022/07/26 00:46:30;;;;;;;2.65;1.30;;;28.20;80.70;;;;;;5033868;28;20033;-25
2022/07/26 00:48:56;;;;;;;2.40;1.45;;;28.20;80.70;;;;;;5033873;28;20068;-25
2022/07/26 00:51:22;;;;;;;1.33;0.95;;;28.20;80.80;;;;;;5034008;28;20527;-25
2022/07/26 00:53:48;;;;;;;2.25;1.10;;;28.20;80.80;;;;;;5034425;28;20029;-25
2022/07/26 00:56:15;;;;;;;1.50;1.13;;;28.10;80.80;;;;;;5033929;28;20028;-25
2022/07/26 00:58:44;;;;;;;3.38;1.40;;;28.10;80.80;;;;;;5033547;28;20022;-25
2022/07/26 01:01:10;;;;;;;4.30;1.17;;;28.10;80.90;;;;;;5034073;28;20049;-24
2022/07/26 01:03:36;;;;;;;2.25;1.17;;;28.10;80.90;;;;;;5034766;28;20071;-24
2022/07/26 01:06:02;;;;;;;2.70;1.10;;;28.10;81.00;;;;;;5032718;28;20064;-24
2022/07/26 01:08:27;;;;;;;1.30;0.95;;;28.10;81.00;;;;;;5033310;28;20045;-24
2022/07/26 01:10:53;;;;;;;3.42;1.20;;;28.10;81.00;;;;;;5033778;28;20119;-24
2022/07/26 01:13:20;;;;;;;2.47;1.23;;;28.10;81.10;;;;;;5033495;28;20071;-24
2022/07/26 01:15:46;;;;;;;1.52;1.00;;;28.10;81.10;;;;;;5033698;28;20368;-25
2022/07/26 01:18:11;;;;;;;1.83;1.10;;;28.10;81.20;;;;;;5033294;28;20032;-25
2022/07/26 01:20:38;;;;;;;2.05;1.20;;;28.10;81.20;;;;;;5033572;28;20052;-24
2022/07/26 01:23:04;;;;;;;2.28;1.10;;;28.10;81.40;;;;;;5033837;28;20498;-24
2022/07/26 01:25:33;;;;;;;2.67;1.08;;;28.00;81.40;;;;;;5033198;28;20073;-25
2022/07/26 01:27:58;;;;;;;2.20;1.10;;;28.00;81.40;;;;;;5032970;28;20406;-24
2022/07/26 01:30:24;;;;;;;1.95;1.05;;;28.00;81.50;;;;;;5032989;28;20026;-24
2022/07/26 01:32:50;;;;;;;1.42;0.90;;;28.00;81.60;;;;;;5015780;28;20048;-24
2022/07/26 01:35:15;;;;;;;1.63;1.10;;;28.00;81.50;;;;;;5033801;28;20021;-25
2022/07/26 01:37:41;;;;;;;1.58;0.90;;;28.00;81.60;;;;;;5032922;28;20441;-25
2022/07/26 01:40:08;;;;;;;1.52;1.00;;;28.00;81.60;;;;;;5032811;28;20051;-24
2022/07/26 01:42:34;;;;;;;2.15;1.00;;;28.00;81.60;;;;;;5032879;28;20486;-24
2022/07/26 01:44:59;;;;;;;2.35;0.90;;;28.00;81.70;;;;;;5033057;28;20160;-25
2022/07/26 01:47:25;;;;;;;1.58;0.98;;;28.00;81.70;;;;;;5032908;28;20450;-24
2022/07/26 01:49:51;;;;;;;2.90;1.20;;;28.00;81.70;;;;;;5032572;28;20029;-24
2022/07/26 01:52:17;;;;;;;1.10;1.00;;;28.00;81.80;;;;;;5033268;28;20024;-24
2022/07/26 01:54:43;;;;;;;3.97;1.05;;;28.00;81.80;;;;;;5032658;28;20417;-25
2022/07/26 01:57:09;;;;;;;1.42;0.95;;;28.00;81.80;;;;;;5032443;28;20025;-25
2022/07/26 01:59:34;;;;;;;1.92;1.00;;;28.00;81.80;;;;;;5032621;28;20017;-24
2022/07/26 02:02:00;;;;;;;1.73;1.08;;;28.00;81.80;;;;;;5032531;28;20497;-24
2022/07/26 02:07:10;;;;;;;1.73;0.90;;;27.90;81.90;;;;;;5033263;28;20047;-24
2022/07/26 02:09:36;;;;;;;0.93;0.63;;;27.90;82.00;;;;;;5032183;28;20453;-24
2022/07/26 02:12:02;;;;;;;1.60;1.08;;;27.90;82.00;;;;;;5032599;28;20021;-24
2022/07/26 02:14:28;;;;;;;1.70;0.95;;;27.90;82.10;;;;;;5032426;28;20033;-25
2022/07/26 02:16:58;;;;;;;1.85;1.00;;;27.90;82.10;;;;;;5032261;28;20032;-24
2022/07/26 02:19:25;;;;;;;1.67;1.00;;;27.90;82.20;;;;;;5014265;28;20471;-24
2022/07/26 02:21:51;;;;;;;1.50;0.85;;;27.90;82.20;;;;;;5032287;28;20033;-24
2022/07/26 02:24:17;;;;;;;2.40;0.90;;;27.90;82.20;;;;;;5014370;28;20391;-24
2022/07/26 02:26:42;;;;;;;0.95;0.80;;;27.90;82.30;;;;;;5032194;28;20018;-24
2022/07/26 02:29:08;;;;;;;1.60;0.90;;;27.90;82.30;;;;;;5031732;28;20026;-24
2022/07/26 02:31:34;;;;;;;2.05;0.80;;;27.90;82.40;;;;;;5014322;28;20018;-24
2022/07/26 02:33:59;;;;;;;0.95;0.80;;;27.80;82.40;;;;;;5032105;28;20583;-24
2022/07/26 02:36:25;;;;;;;2.15;0.90;;;27.80;82.50;;;;;;5032475;28;20374;-25
2022/07/26 02:38:51;;;;;;;0.82;0.70;;;27.90;82.50;;;;;;5031611;28;20079;-25
2022/07/26 02:41:16;;;;;;;1.73;0.90;;;27.80;82.50;;;;;;5031950;28;20029;-24
2022/07/26 02:43:42;;;;;;;2.05;0.90;;;27.80;82.50;;;;;;5032092;28;20026;-24
2022/07/26 02:46:08;;;;;;;1.10;0.70;;;27.80;82.50;;;;;;5031917;28;20467;-24
2022/07/26 02:48:33;;;;;;;2.20;0.80;;;27.80;82.60;;;;;;5031787;28;20470;-24
2022/07/26 02:50:59;;;;;;;4.47;1.25;;;27.80;82.60;;;;;;5032414;28;20463;-24
2022/07/26 02:53:25;;;;;;;2.72;0.95;;;27.80;82.60;;;;;;5031742;28;20025;-25
2022/07/26 02:55:50;;;;;;;1.17;0.80;;;27.80;82.60;;;;;;5032084;28;20025;-25
2022/07/26 02:58:16;;;;;;;1.30;0.90;;;27.80;82.60;;;;;;5031744;28;20026;-25
2022/07/26 03:00:42;;;;;;;0.93;0.70;;;27.80;82.70;;;;;;5031835;28;20021;-25
2022/07/26 03:03:07;;;;;;;1.33;1.00;;;27.80;82.80;;;;;;5017709;28;20467;-24
2022/07/26 03:05:33;;;;;;;1.70;0.80;;;27.80;82.80;;;;;;5032065;28;20029;-25
2022/07/26 03:07:59;;;;;;;0.88;0.70;;;27.80;82.90;;;;;;5032227;28;20025;-24
2022/07/26 03:10:24;;;;;;;1.15;0.85;;;27.80;82.90;;;;;;5032744;28;20080;-24
2022/07/26 03:12:50;;;;;;;2.08;0.98;;;27.80;82.90;;;;;;5032720;28;20061;-24
2022/07/26 03:15:16;;;;;;;2.40;0.70;;;27.70;83.00;;;;;;5032053;28;20057;-24
2022/07/26 03:17:41;;;;;;;1.02;0.90;;;27.70;83.00;;;;;;5031769;28;20041;-24
2022/07/26 03:20:08;;;;;;;2.03;1.00;;;27.70;83.10;;;;;;5031840;28;20022;-24
2022/07/26 03:22:34;;;;;;;1.33;0.93;;;27.70;83.10;;;;;;5014149;28;20478;-25
2022/07/26 03:25:00;;;;;;;2.30;1.08;;;27.70;83.10;;;;;;5014087;28;20025;-25
2022/07/26 03:27:26;;;;;;;1.65;1.08;;;27.70;83.20;;;;;;4997813;28;20064;-24
2022/07/26 03:29:51;;;;;;;2.72;0.98;;;27.70;83.10;;;;;;5035228;28;20052;-24
2022/07/26 03:32:17;;;;;;;1.00;0.80;;;27.70;83.10;;;;;;5035595;28;20388;-24
2022/07/26 03:34:43;;;;;;;1.30;0.90;;;27.70;83.20;;;;;;5035473;28;20025;-24
2022/07/26 03:37:08;;;;;;;1.75;0.88;;;27.70;83.20;;;;;;5035116;28;20036;-24
2022/07/26 03:39:36;;;;;;;1.65;0.80;;;27.70;83.20;;;;;;5035422;28;20014;-25
2022/07/26 03:42:02;;;;;;;1.80;0.93;;;27.70;83.20;;;;;;5035424;28;20022;-24
2022/07/26 03:44:28;;;;;;;1.25;1.00;;;27.70;83.30;;;;;;5035413;28;20017;-24
2022/07/26 03:46:54;;;;;;;2.13;0.90;;;27.70;83.30;;;;;;5035252;28;20371;-24
2022/07/26 03:49:20;;;;;;;1.20;0.80;;;27.60;83.20;;;;;;5035058;28;20028;-24
2022/07/26 03:51:45;;;;;;;1.10;0.90;;;27.60;83.20;;;;;;5034960;28;20470;-25
2022/07/26 03:54:11;;;;;;;1.23;0.98;;;27.60;83.30;;;;;;5035069;28;20053;-24
2022/07/26 03:56:37;;;;;;;1.50;1.02;;;27.60;83.30;;;;;;5035055;28;20021;-24
2022/07/26 03:59:07;;;;;;;1.77;0.93;;;27.60;83.30;;;;;;5035217;28;20049;-24
2022/07/26 04:01:33;;;;;;;1.10;0.80;;;27.60;83.30;;;;;;5035189;28;20029;-24
2022/07/26 04:04:00;;;;;;;1.73;1.00;;;27.60;83.30;;;;;;5034873;28;20030;-25
2022/07/26 04:06:26;;;;;;;2.42;0.90;;;27.60;83.30;;;;;;5016894;28;20414;-25
2022/07/26 04:08:52;;;;;;;1.92;0.90;;;27.60;83.30;;;;;;5016616;28;20021;-25
2022/07/26 04:11:17;;;;;;;1.27;0.82;;;27.60;83.40;;;;;;5034937;28;20029;-24
2022/07/26 04:13:43;;;;;;;2.80;0.93;;;27.60;83.40;;;;;;5035053;28;20024;-24
2022/07/26 04:16:09;;;;;;;3.13;1.10;;;27.60;83.50;;;;;;5034849;28;20109;-24
2022/07/26 04:18:34;;;;;;;1.63;1.00;;;27.60;83.50;;;;;;5034521;28;20433;-24
2022/07/26 04:21:00;;;;;;;1.30;0.90;;;27.50;83.40;;;;;;5034444;28;20453;-24
2022/07/26 04:23:26;;;;;;;2.05;1.02;;;27.50;83.40;;;;;;5034440;28;20029;-24
2022/07/26 04:25:52;;;;;;;1.75;1.00;;;27.60;83.60;;;;;;5034406;28;20513;-24
2022/07/26 04:28:17;;;;;;;2.20;0.90;;;27.50;83.40;;;;;;5033976;28;20087;-24
2022/07/26 04:30:43;;;;;;;2.97;1.10;;;27.50;83.50;;;;;;5034278;28;20021;-24
2022/07/26 04:33:09;;;;;;;3.10;0.90;;;27.50;83.60;;;;;;5034366;28;20022;-25
2022/07/26 04:35:35;;;;;;;1.88;1.10;;;27.50;83.60;;;;;;5034130;28;20478;-25
2022/07/26 04:38:03;;;;;;;1.42;0.88;;;27.50;83.70;;;;;;5034016;28;20025;-24
2022/07/26 04:40:32;;;;;;;1.95;0.85;;;27.50;83.70;;;;;;5034101;28;20033;-24
2022/07/26 04:42:59;;;;;;;1.38;0.90;;;27.40;83.60;;;;;;5034075;28;20029;-24
2022/07/26 04:45:25;;;;;;;1.20;0.80;;;27.40;83.70;;;;;;5034049;28;20061;-24
2022/07/26 04:47:51;;;;;;;1.30;1.10;;;27.40;83.80;;;;;;5033867;28;20029;-24
2022/07/26 04:50:18;;;;;;;2.40;0.93;;;27.40;83.80;;;;;;5033717;28;20069;-24
2022/07/26 04:52:44;;;;;;;2.53;0.93;;;27.40;83.80;;;;;;5016153;28;20113;-24
2022/07/26 04:55:09;;;;;;;1.20;0.80;;;27.40;83.80;;;;;;5034055;28;20109;-24
2022/07/26 04:57:35;;;;;;;1.35;0.82;;;27.40;83.80;;;;;;5033767;28;20475;-24
2022/07/26 05:00:03;;;;;;;1.75;0.85;;;27.40;83.80;;;;;;5033538;28;20034;-24
2022/07/26 05:02:29;;;;;;;3.58;1.02;;;27.40;83.90;;;;;;5033725;28;20104;-24
2022/07/26 05:04:55;;;;;;;1.80;0.95;;;27.40;83.90;;;;;;5033770;28;20550;-24
2022/07/26 05:07:20;;;;;;;1.85;0.80;;;27.40;83.90;;;;;;5033764;28;20021;-24
2022/07/26 05:09:46;;;;;;;3.55;1.13;;;27.40;84.00;;;;;;5033622;28;20029;-24
2022/07/26 05:12:12;;;;;;;2.78;1.10;;;27.40;84.00;;;;;;5033531;28;20026;-24
2022/07/26 05:14:38;;;;;;;2.15;1.00;;;27.30;83.90;;;;;;5033481;28;20433;-24
2022/07/26 05:17:04;;;;;;;1.77;0.90;;;27.40;84.00;;;;;;5033302;28;20037;-24
2022/07/26 05:19:29;;;;;;;1.98;1.10;;;27.40;84.00;;;;;;5033475;28;20014;-24
2022/07/26 05:21:55;;;;;;;1.45;0.98;;;27.30;84.00;;;;;;5033386;28;20168;-25
2022/07/26 05:24:21;;;;;;;1.92;1.00;;;27.30;84.00;;;;;;5033915;28;20025;-25
2022/07/26 05:26:46;;;;;;;1.50;1.05;;;27.30;84.00;;;;;;5033477;28;20057;-25
2022/07/26 05:29:12;;;;;;;3.35;1.20;;;27.30;84.00;;;;;;5055626;22;20083;-25
2022/07/26 05:31:38;;;;;;;1.95;0.90;;;27.40;84.10;;;;;;5033111;28;20018;-25
2022/07/26 05:34:04;;;;;;;1.25;1.02;;;27.30;84.80;;;;;;5033008;28;20033;-25
2022/07/26 05:36:29;;;;;;;1.67;0.95;;;27.30;84.00;;;;;;5033062;28;20441;-25
2022/07/26 05:38:55;;;;;;;2.13;1.13;;;27.30;84.00;;;;;;5032691;28;20470;-25
2022/07/26 05:41:21;;;;;;;2.83;0.93;;;27.30;84.10;;;;;;5032909;28;20021;-25
2022/07/26 05:43:47;;;;;;;5.38;1.00;;;27.30;84.10;;;;;;5032906;28;20080;-25
2022/07/26 05:46:14;;;;;;;2.80;0.88;;;27.30;84.10;;;;;;5032660;28;20026;-25
2022/07/26 05:48:40;;;;;;;2.35;1.10;;;27.20;84.20;;;;;;5032461;28;20434;-25
2022/07/26 05:51:06;;;;;;;4.78;1.55;;;27.00;84.60;;;;;;5032329;28;20489;-25
2022/07/26 05:53:32;;;;;;;2.25;1.10;;;26.80;85.10;;;;;;5032715;28;20021;-25
2022/07/26 05:55:57;;;;;;;5.38;1.23;;;26.60;85.60;;;;;;5032578;28;20033;-25
2022/07/26 05:58:23;;;;;;;3.40;1.00;;;26.40;86.10;;;;;;5032320;28;20107;-25
2022/07/26 06:00:49;;;;;;;4.30;1.00;;;26.20;86.40;;;;;;5014719;28;20490;-25
2022/07/26 06:03:24;;;;;;;5.97;1.10;;;26.10;85.90;;;;;;5032489;28;20025;-25
2022/07/26 06:05:52;;;;;;;3.53;0.80;;;26.00;85.80;;;;;;5032719;28;20080;-25
2022/07/26 06:08:19;;;;;;;2.17;1.13;;;26.00;85.70;;;;;;5032185;28;20386;-25
2022/07/26 06:10:46;;;;;;;4.28;1.20;;;25.90;85.80;;;;;;5032636;28;20029;-25
2022/07/26 06:13:11;;;;;;;7.97;1.20;;;25.80;85.90;;;;;;5032451;28;20018;-25
2022/07/26 06:15:37;;;;;;;4.28;1.15;;;25.80;85.40;;;;;;5014425;28;20033;-25
2022/07/26 06:18:04;;;;;;;7.25;1.20;;;25.80;85.10;;;;;;5032125;28;20048;-25
2022/07/26 06:20:31;;;;;;;2.30;0.93;;;25.70;84.90;;;;;;5032161;28;20057;-25
2022/07/26 06:22:57;;;;;;;6.22;1.50;;;25.70;84.70;;;;;;5032233;28;20022;-25
2022/07/26 06:25:24;;;;;;;6.07;1.17;;;25.70;84.70;;;;;;5032089;28;20028;-25
2022/07/26 06:28:07;;;;;;;5.53;1.02;;;25.70;84.50;;;;;;5009234;28;20136;-25
2022/07/26 06:30:33;;;;;;;6.65;1.45;;;25.70;83.60;;;;;;5032013;28;20048;-25
2022/07/26 06:32:58;;;;;;;3.70;1.10;;;25.70;83.30;;;;;;5032120;28;20057;-25
2022/07/26 06:35:28;;;;;;;3.85;1.02;;;25.70;83.10;;;;;;5032377;28;20049;-25
2022/07/26 06:37:53;;;;;;;2.70;0.80;;;25.60;82.40;;;;;;5031956;28;20021;-25
2022/07/26 06:40:19;;;;;;;4.72;1.00;;;25.60;82.00;;;;;;5031847;28;20028;-25
2022/07/26 06:42:44;;;;;;;4.25;1.00;;;25.60;81.50;;;;;;5031855;28;20033;-25
2022/07/26 06:45:10;;;;;;;3.42;0.93;;;25.60;80.90;;;;;;5014225;28;20055;-25
2022/07/26 06:47:36;;;;;;;4.35;0.90;;;25.60;80.50;;;;;;5031844;28;20083;-25
2022/07/26 06:50:03;;;;;;;2.58;0.70;;;25.60;79.90;;;;;;5031746;28;20493;-25
2022/07/26 06:52:31;;;;;;;4.20;0.85;;;25.60;79.00;;;;;;5032342;28;20029;-25
2022/07/26 06:54:57;;;;;;;3.53;0.82;;;25.60;78.30;;;;;;5031818;28;20072;-25
2022/07/26 06:57:23;;;;;;;3.35;0.90;;;25.50;78.20;;;;;;5031654;28;20064;-25
2022/07/26 06:59:49;;;;;;;6.28;0.85;;;25.70;78.40;;;;;;5031614;28;20033;-25
2022/07/26 07:02:14;;;;;;;2.92;0.70;;;25.80;78.40;;;;;;5031821;28;20025;-25
2022/07/26 07:04:40;;;;;;;4.30;0.90;;;26.00;78.50;;;;;;5035130;28;20024;-25
2022/07/26 07:07:07;;;;;;;3.00;0.90;;;26.10;78.40;;;;;;5035800;28;20021;-25
2022/07/26 07:09:34;;;;;;;4.18;0.60;;;26.20;78.30;;;;;;5035521;28;20017;-25
2022/07/26 07:12:01;;;;;;;2.35;0.90;;;26.30;78.10;;;;;;5035886;28;20054;-25
2022/07/26 07:14:27;;;;;;;4.15;0.90;;;26.40;78.10;;;;;;5035718;28;20025;-25
2022/07/26 07:16:53;;;;;;;1.90;0.63;;;26.50;78.10;;;;;;5035705;28;20025;-25
2022/07/26 07:19:19;;;;;;;4.63;0.88;;;26.50;78.00;;;;;;5035307;28;20017;-25
2022/07/26 07:21:45;;;;;;;3.42;0.90;;;26.60;78.00;;;;;;5035590;28;20025;-25
2022/07/26 07:24:10;;;;;;;2.15;0.77;;;26.60;78.00;;;;;;5035382;28;20148;-25
2022/07/26 07:26:36;;;;;;;3.35;0.88;;;26.70;78.00;;;;;;5035341;28;20037;-25
2022/07/26 07:29:02;;;;;;;1.60;0.70;;;26.70;77.90;;;;;;5035077;28;20111;-25
2022/07/26 07:31:28;;;;;;;2.80;0.73;;;26.80;77.90;;;;;;5035425;28;20022;-25
2022/07/26 07:33:54;;;;;;;2.05;0.68;;;26.70;77.90;;;;;;5035384;28;20453;-25
2022/07/26 07:36:20;;;;;;;2.15;0.55;;;26.80;78.00;;;;;;5035298;28;20083;-25
2022/07/26 07:38:46;;;;;;;1.85;0.70;;;26.80;78.00;;;;;;5034807;28;20112;-25
2022/07/26 07:41:11;;;;;;;1.75;0.70;;;26.80;77.90;;;;;;5035209;28;20390;-25
2022/07/26 07:43:37;;;;;;;3.55;0.88;;;26.80;78.00;;;;;;5035189;28;20116;-25
2022/07/26 07:46:03;;;;;;;1.27;0.57;;;26.80;78.00;;;;;;5035040;28;20030;-25
2022/07/26 07:48:29;;;;;;;2.10;0.60;;;26.80;78.00;;;;;;5034726;28;20017;-25
2022/07/26 07:50:55;;;;;;;1.25;0.55;;;26.90;78.00;;;;;;5035047;28;20033;-25
2022/07/26 07:53:20;;;;;;;1.98;0.80;;;26.90;78.00;;;;;;5034904;28;20025;-25
2022/07/26 07:55:46;;;;;;;2.50;0.70;;;26.90;78.00;;;;;;5034883;28;20037;-25
2022/07/26 07:58:12;;;;;;;1.52;0.63;;;26.90;78.00;;;;;;5034608;28;20490;-25
2022/07/26 08:00:37;;;;;;;2.33;0.73;;;27.00;78.00;;;;;;5034791;28;20037;-25
2022/07/26 08:03:03;;;;;;;1.70;0.70;;;27.00;77.90;;;;;;5034824;28;20036;-25
2022/07/26 08:05:29;;;;;;;1.17;0.70;;;27.00;77.90;;;;;;5034725;28;20029;-25
2022/07/26 08:07:55;;;;;;;1.05;0.60;;;27.00;77.90;;;;;;5034500;28;20075;-25
2022/07/26 08:10:21;;;;;;;1.27;0.57;;;27.00;77.90;;;;;;5034461;28;20031;-25
2022/07/26 08:12:47;;;;;;;1.77;0.60;;;27.10;78.00;;;;;;5034591;28;20096;-25
2022/07/26 08:15:12;;;;;;;3.20;0.60;;;27.10;77.80;;;;;;5034226;28;20029;-25
2022/07/26 08:17:38;;;;;;;3.13;0.70;;;27.10;77.70;;;;;;5034456;28;20034;-25
2022/07/26 08:20:04;;;;;;;2.53;0.68;;;27.10;77.70;;;;;;5034279;28;20030;-25
2022/07/26 08:22:30;;;;;;;1.35;0.70;;;27.10;77.70;;;;;;5034294;28;20022;-25
2022/07/26 08:24:56;;;;;;;1.50;0.60;;;27.10;77.60;;;;;;5034328;28;20528;-25
2022/07/26 08:27:21;;;;;;;2.03;0.75;;;27.20;77.50;;;;;;5034292;28;20021;-25
2022/07/26 08:29:47;;;;;;;2.33;1.05;;;27.20;77.60;;;;;;5034008;28;20402;-25
2022/07/26 08:32:13;;;;;;;0.88;0.50;;;27.20;77.50;;;;;;5034286;28;20475;-25
2022/07/26 08:34:38;;;;;;;3.33;0.70;;;27.20;77.40;;;;;;5034234;28;20033;-25
2022/07/26 08:37:04;;;;;;;1.85;0.70;;;27.20;77.40;;;;;;5034577;28;20060;-25
2022/07/26 08:39:30;;;;;;;3.03;0.70;;;27.30;77.40;;;;;;5033778;28;20076;-25
2022/07/26 08:41:55;;;;;;;1.83;0.65;;;27.20;77.30;;;;;;5034133;28;20029;-25
2022/07/26 08:44:21;;;;;;;2.38;0.70;;;27.20;77.30;;;;;;5034054;28;20025;-25
2022/07/26 08:46:46;;;;;;;3.60;0.70;;;27.30;77.30;;;;;;5034231;28;20104;-25
2022/07/26 08:49:13;;;;;;;3.33;0.98;;;27.30;77.30;;;;;;5033720;28;20025;-25
2022/07/26 08:51:42;;;;;;;1.83;0.70;;;27.30;77.20;;;;;;5033784;28;20021;-25
2022/07/26 08:54:10;;;;;;;1.70;0.70;;;27.30;77.30;;;;;;5033875;28;20029;-25
2022/07/26 08:56:41;;;;;;;3.25;0.80;;;27.30;77.20;;;;;;5033783;28;20104;-25
2022/07/26 08:59:14;;;;;;;1.52;0.70;;;27.30;77.20;;;;;;5033536;28;20438;-25
2022/07/26 09:02:11;;;;;;;1.55;0.60;;;27.30;77.20;;;;;;5033748;28;20018;-25
2022/07/26 09:04:40;;;;;;;2.78;0.77;;;27.40;77.30;;;;;;5021234;28;20033;-25
2022/07/26 09:07:08;;;;;;;4.75;1.00;;;27.30;74.80;;;;;;5033527;28;20030;-25
2022/07/26 09:09:37;;;;;;;7.03;0.98;;;26.90;71.60;;;;;;5033223;28;20022;-25
2022/07/26 09:12:18;;;;;;;9.35;1.00;;;26.80;72.70;;;;;;5033538;28;20076;-25
2022/07/26 09:14:45;;;;;;;8.20;1.02;;;26.90;73.20;;;;;;5033364;28;20283;-25
2022/07/26 09:17:12;;;;;;;6.82;0.88;;;26.90;73.30;;;;;;5033432;28;20025;-25
2022/07/26 09:19:38;;;;;;;5.20;0.90;;;27.00;73.30;;;;;;5033088;28;20032;-25
2022/07/26 09:22:09;;;;;;;7.60;1.08;;;27.00;73.30;;;;;;5033290;28;20022;-25
2022/07/26 09:24:40;;;;;;;2.80;0.80;;;27.10;73.70;;;;;;5033292;28;20037;-25
2022/07/26 09:27:11;;;;;;;2.63;0.90;;;27.10;73.80;;;;;;5014520;28;20048;-25
2022/07/26 09:29:46;;;;;;;2.80;0.80;;;27.20;74.00;;;;;;5032839;28;20049;-25
2022/07/26 09:32:18;;;;;;;4.45;0.90;;;27.20;74.10;;;;;;5033144;28;20026;-25
2022/07/26 09:34:50;;;;;;;5.35;0.88;;;27.20;74.10;;;;;;5033096;28;20137;-25
2022/07/26 09:37:16;;;;;;;4.47;0.70;;;27.20;74.20;;;;;;5033503;28;20030;-25
2022/07/26 09:39:58;;;;;;;3.40;0.80;;;27.20;74.20;;;;;;5032624;28;20085;-25
2022/07/26 09:42:26;;;;;;;2.00;0.55;;;27.20;74.40;;;;;;5033185;28;20048;-25
2022/07/26 09:44:52;;;;;;;2.80;0.90;;;27.20;74.50;;;;;;5032873;28;20032;-25
2022/07/26 09:47:18;;;;;;;2.58;0.75;;;27.30;74.70;;;;;;5015115;28;20432;-25
2022/07/26 09:49:43;;;;;;;4.95;0.93;;;27.30;74.70;;;;;;5032564;28;20269;-25
2022/07/26 09:52:19;;;;;;;3.08;0.80;;;27.30;74.70;;;;;;5032648;28;20018;-25
2022/07/26 09:54:48;;;;;;;2.28;0.75;;;27.30;74.80;;;;;;5032714;28;20030;-25
2022/07/26 09:57:18;;;;;;;1.83;0.52;;;27.30;74.80;;;;;;5032680;28;20041;-25
2022/07/26 09:59:45;;;;;;;4.72;0.55;;;27.30;74.70;;;;;;5032470;28;20086;-26
2022/07/26 10:02:12;;;;;;;2.60;0.80;;;27.30;74.80;;;;;;5032614;28;20025;-25
2022/07/26 10:04:39;;;;;;;4.00;0.88;;;27.40;74.90;;;;;;5032628;28;20050;-26
2022/07/26 10:07:05;;;;;;;4.05;0.85;;;27.40;74.90;;;;;;5032389;28;20029;-25
2022/07/26 10:09:56;;;;;;;3.08;0.90;;;27.40;74.90;;;;;;5032423;28;20093;-25
2022/07/26 10:12:25;;;;;;;1.10;0.43;;;27.30;74.80;;;;;;5032531;28;20020;-25
2022/07/26 10:14:51;;;;;;;6.53;0.75;;;27.40;75.00;;;;;;5032362;28;20021;-25
2022/07/26 10:17:28;;;;;;;3.15;0.70;;;27.40;74.90;;;;;;5032163;28;20501;-25
2022/07/26 10:20:04;;;;;;;1.58;0.68;;;27.50;75.00;;;;;;5032060;28;20045;-25
2022/07/26 10:22:32;;;;;;;1.65;0.65;;;27.40;74.80;;;;;;5032265;28;20144;-25
2022/07/26 10:25:16;;;;;;;1.90;0.60;;;27.50;74.90;;;;;;5032153;28;20025;-25
2022/07/26 10:27:54;;;;;;;2.60;0.70;;;27.50;74.90;;;;;;5031831;28;20026;-25
2022/07/26 10:30:25;;;;;;;1.20;0.57;;;27.50;75.00;;;;;;5031927;28;20387;-25
2022/07/26 10:33:01;;;;;;;1.30;0.50;;;27.50;75.00;;;;;;5032145;28;20021;-25
2022/07/26 10:38:12;;;;;;;2.47;0.65;;;27.50;74.90;;;;;;5031691;28;20060;-25
2022/07/26 10:40:55;;;;;;;4.15;0.93;;;27.50;74.90;;;;;;5031991;28;20030;-25
2022/07/26 10:43:21;;;;;;;3.72;0.75;;;27.60;75.00;;;;;;5032052;28;20032;-25
2022/07/26 10:45:46;;;;;;;4.03;0.73;;;27.60;74.90;;;;;;5031920;28;20029;-25
2022/07/26 10:48:21;;;;;;;1.92;0.60;;;27.60;74.90;;;;;;5013910;28;20080;-25
2022/07/26 10:50:52;;;;;;;1.33;0.50;;;27.60;74.90;;;;;;5031846;28;20022;-25
2022/07/26 10:53:24;;;;;;;1.10;0.47;;;27.60;74.90;;;;;;5032041;28;20065;-25
2022/07/26 10:55:55;;;;;;;2.50;0.68;;;27.60;75.00;;;;;;5032047;28;20041;-25
2022/07/26 10:58:22;;;;;;;1.67;0.80;;;27.60;74.90;;;;;;5031655;28;20087;-25
2022/07/26 11:01:00;;;;;;;1.65;0.60;;;27.60;74.90;;;;;;5031814;28;20017;-25
2022/07/26 11:03:38;;;;;;;2.08;0.60;;;27.60;74.90;;;;;;5031828;28;20021;-25
2022/07/26 11:06:14;;;;;;;3.78;0.60;;;27.60;74.90;;;;;;5014084;28;20096;-25
2022/07/26 11:08:41;;;;;;;1.85;0.63;;;27.60;74.90;;;;;;5031614;28;20666;-25
2022/07/26 11:11:07;;;;;;;2.17;0.55;;;27.60;75.00;;;;;;5031772;28;20029;-25
2022/07/26 11:13:35;;;;;;;4.78;0.95;;;27.60;75.00;;;;;;5031626;28;20360;-25
2022/07/26 11:16:05;;;;;;;1.48;0.60;;;27.50;74.90;;;;;;5031810;28;20124;-25
2022/07/26 11:18:36;;;;;;;1.05;0.50;;;27.60;74.90;;;;;;5031499;28;20064;-25
2022/07/26 11:21:28;;;;;;;2.38;0.70;;;27.60;74.90;;;;;;5032234;28;20029;-25
2022/07/26 11:24:02;;;;;;;1.30;0.50;;;27.60;74.90;;;;;;5028611;28;20048;-25
2022/07/26 11:26:30;;;;;;;1.05;0.70;;;27.50;74.80;;;;;;5032088;28;20382;-25
2022/07/26 11:28:58;;;;;;;1.27;0.70;;;27.50;74.80;;;;;;5054681;22;20045;-24
2022/07/26 11:31:35;;;;;;;0.80;0.50;;;27.50;74.80;;;;;;5032973;28;20497;-24
2022/07/26 11:34:02;;;;;;;1.13;0.47;;;27.50;74.90;;;;;;5031886;28;20117;-24
2022/07/26 11:36:39;;;;;;;1.30;0.60;;;27.60;75.00;;;;;;5031704;28;20029;-24
2022/07/26 11:39:08;;;;;;;1.58;0.60;;;27.60;75.00;;;;;;5030399;28;20088;-24
2022/07/26 11:41:34;;;;;;;2.25;0.80;;;27.50;74.90;;;;;;5030440;28;20105;-24
2022/07/26 11:44:00;;;;;;;1.55;0.65;;;27.60;74.90;;;;;;5031621;28;20117;-24
2022/07/26 11:46:39;;;;;;;0.88;0.40;;;27.50;74.90;;;;;;5031738;28;20029;-24
2022/07/26 11:49:13;;;;;;;0.80;0.60;;;27.60;74.90;;;;;;5031849;28;20410;-24
2022/07/26 11:51:38;;;;;;;1.52;0.77;;;27.60;74.80;;;;;;5033882;28;20390;-24
2022/07/26 11:54:04;;;;;;;1.25;0.60;;;27.60;74.80;;;;;;5033775;28;20021;-24
2022/07/26 11:56:31;;;;;;;1.40;0.60;;;27.50;74.70;;;;;;5035152;28;20029;-23
2022/07/26 11:58:57;;;;;;;3.50;0.60;;;27.50;74.70;;;;;;5034974;28;20021;-24
2022/07/26 12:01:25;;;;;;;1.15;0.60;;;27.50;74.70;;;;;;5035164;28;20100;-24
2022/07/26 12:03:52;;;;;;;2.63;0.60;;;27.50;74.70;;;;;;5033696;28;20091;-24
2022/07/26 12:06:20;;;;;;;2.95;0.70;;;27.60;74.70;;;;;;5036133;28;20021;-24
2022/07/26 12:08:52;;;;;;;3.10;0.65;;;27.50;74.60;;;;;;5036085;28;20382;-24
2022/07/26 12:11:19;;;;;;;1.75;0.55;;;27.50;74.60;;;;;;5034773;28;20060;-24
2022/07/26 12:13:58;;;;;;;1.10;0.50;;;27.60;74.60;;;;;;5034798;28;20394;-24
2022/07/26 12:16:36;;;;;;;1.55;0.63;;;27.60;74.50;;;;;;5034807;28;20475;-24
2022/07/26 12:19:07;;;;;;;1.27;0.50;;;27.60;74.40;;;;;;5034461;28;20036;-24
2022/07/26 12:21:44;;;;;;;1.45;0.60;;;27.60;74.30;;;;;;5034663;28;20030;-24
2022/07/26 12:24:11;;;;;;;1.05;0.60;;;27.70;74.30;;;;;;5034705;28;20032;-23
2022/07/26 12:26:38;;;;;;;1.88;0.60;;;27.70;74.30;;;;;;5034623;28;20040;-24
2022/07/26 12:29:23;;;;;;;0.70;0.50;;;27.70;74.20;;;;;;5034249;28;20030;-24
2022/07/26 12:32:05;;;;;;;1.02;0.57;;;27.70;74.20;;;;;;5034875;28;20033;-24
2022/07/26 12:34:32;;;;;;;0.85;0.60;;;27.70;74.10;;;;;;5033296;28;20025;-24
2022/07/26 12:37:16;;;;;;;0.85;0.40;;;27.70;74.10;;;;;;5034680;28;20457;-24
2022/07/26 12:39:58;;;;;;;0.73;0.40;;;27.70;74.10;;;;;;5034221;28;20021;-24
2022/07/26 12:42:27;;;;;;;0.52;0.35;;;27.70;74.10;;;;;;5034409;28;20036;-24
2022/07/26 12:44:53;;;;;;;1.60;0.73;;;27.70;74.10;;;;;;5034661;28;20045;-24
2022/07/26 12:47:19;;;;;;;1.38;0.35;;;27.70;74.20;;;;;;5034055;28;20438;-24
2022/07/26 12:49:48;;;;;;;1.33;0.60;;;27.70;74.10;;;;;;5033856;28;20022;-25
2022/07/26 12:52:15;;;;;;;2.50;0.80;;;27.70;74.10;;;;;;5034143;28;20379;-25
2022/07/26 12:54:43;;;;;;;0.88;0.60;;;27.70;74.10;;;;;;5032770;28;20021;-25
2022/07/26 12:57:08;;;;;;;1.20;0.60;;;27.70;74.00;;;;;;5033885;28;20021;-25